Time;durP1;ratioP1;P1;durP2;ratioP2;P2;SDS_P1;SDS_P2;PMS_P1;PMS_P2;Temp;Humidity;BMP_temperature;BMP_pressure;BME280_temperature;BME280_humidity;BME280_pressure;Samples;Min_cycle;Max_cycle;Signal;HPM_P1;HPM_P2
2022/09/29 00:01:53;;;;;;;1.43;1.20;;;7.50;97.30;;;;;;5025877;28;20479;-93
2022/09/29 00:04:26;;;;;;;4.20;1.83;;;7.50;97.30;;;;;;5040937;28;20469;-93
2022/09/29 00:06:54;;;;;;;1.50;1.40;;;7.50;97.30;;;;;;5042384;28;20457;-95
2022/09/29 00:09:22;;;;;;;1.10;1.00;;;7.50;97.30;;;;;;5041063;28;20437;-94
2022/09/29 00:11:53;;;;;;;1.83;1.50;;;7.50;97.30;;;;;;5036806;28;20420;-94
2022/09/29 00:14:26;;;;;;;1.67;1.57;;;7.50;97.30;;;;;;5020847;28;20420;-94
2022/09/29 00:16:52;;;;;;;1.40;1.30;;;7.50;97.30;;;;;;5028588;28;20455;-92
2022/09/29 00:19:18;;;;;;;2.33;2.13;;;7.50;97.30;;;;;;5038722;28;20850;-94
2022/09/29 00:21:44;;;;;;;1.50;1.40;;;7.50;97.30;;;;;;5028787;28;20177;-92
2022/09/29 00:24:33;;;;;;;1.20;1.10;;;7.50;97.30;;;;;;5039254;28;20960;-93
2022/09/29 00:27:06;;;;;;;7.27;1.97;;;7.50;97.30;;;;;;5025913;28;20536;-93
2022/09/29 00:29:35;;;;;;;1.30;1.20;;;7.50;97.30;;;;;;5049762;28;20418;-93
2022/09/29 00:32:03;;;;;;;4.10;1.70;;;7.50;97.30;;;;;;5054532;28;20412;-92
2022/09/29 00:34:34;;;;;;;1.30;1.20;;;7.40;97.30;;;;;;5054162;28;20406;-94
2022/09/29 00:37:13;;;;;;;1.53;1.40;;;7.40;97.30;;;;;;5047259;28;20450;-96
2022/09/29 00:39:46;;;;;;;1.40;1.30;;;7.40;97.30;;;;;;5032960;28;20426;-94
2022/09/29 00:42:26;;;;;;;2.00;1.90;;;7.30;97.30;;;;;;5041064;28;20416;-92
2022/09/29 00:45:18;;;;;;;1.30;1.20;;;7.30;97.30;;;;;;5054429;28;20442;-93
2022/09/29 00:47:51;;;;;;;4.10;2.33;;;7.20;97.30;;;;;;5041482;28;20506;-94
2022/09/29 00:50:45;;;;;;;4.63;1.60;;;7.20;97.30;;;;;;5033095;28;20495;-94
2022/09/29 00:53:12;;;;;;;6.63;1.77;;;7.10;97.30;;;;;;5028667;28;20542;-94
2022/09/29 00:55:44;;;;;;;2.93;2.07;;;7.10;97.30;;;;;;5042531;28;20493;-91
2022/09/29 00:58:22;;;;;;;1.47;1.33;;;7.10;97.30;;;;;;5042660;28;20416;-95
2022/09/29 01:00:50;;;;;;;1.20;1.17;;;7.00;97.30;;;;;;5042656;28;20422;-96
2022/09/29 01:03:27;;;;;;;7.70;1.67;;;7.00;97.30;;;;;;5041508;28;20438;-95
2022/09/29 01:06:09;;;;;;;1.30;1.20;;;6.90;97.30;;;;;;5030383;28;20526;-94
2022/09/29 01:08:46;;;;;;;6.67;1.77;;;6.90;97.30;;;;;;5027345;28;20496;-92
2022/09/29 01:11:16;;;;;;;1.70;1.60;;;6.90;97.30;;;;;;5047695;28;20420;-95
2022/09/29 01:13:45;;;;;;;1.93;1.67;;;6.80;97.30;;;;;;5028668;28;20404;-94
2022/09/29 01:16:13;;;;;;;13.27;2.50;;;6.80;97.30;;;;;;5035711;28;20432;-93
2022/09/29 01:18:39;;;;;;;5.73;2.10;;;6.80;97.30;;;;;;5032081;28;20502;-94
2022/09/29 01:21:17;;;;;;;2.00;1.47;;;6.80;97.30;;;;;;5032304;28;20477;-94
2022/09/29 01:24:23;;;;;;;1.40;1.30;;;6.80;97.30;;;;;;5044268;28;20430;-94
2022/09/29 01:27:14;;;;;;;1.60;1.50;;;6.80;97.30;;;;;;5009929;28;20474;-94
2022/09/29 01:30:13;;;;;;;2.60;1.40;;;6.80;97.30;;;;;;5044171;28;20506;-93
2022/09/29 01:33:15;;;;;;;1.17;1.07;;;6.70;97.30;;;;;;5043093;28;20454;-95
2022/09/29 01:36:06;;;;;;;2.07;1.93;;;6.70;97.30;;;;;;5034804;28;20438;-92
2022/09/29 01:39:00;;;;;;;1.37;1.27;;;6.70;97.30;;;;;;5048124;28;20411;-95
2022/09/29 01:41:44;;;;;;;1.50;1.13;;;6.60;97.30;;;;;;5057419;28;20842;-93
2022/09/29 01:44:26;;;;;;;3.63;2.60;;;6.60;97.30;;;;;;5037013;28;20420;-94
2022/09/29 01:46:57;;;;;;;2.13;1.97;;;6.50;97.30;;;;;;5040694;28;20567;-95
2022/09/29 01:49:27;;;;;;;3.43;1.93;;;6.50;97.30;;;;;;5028740;28;20506;-93
2022/09/29 01:52:16;;;;;;;1.43;1.33;;;6.50;97.30;;;;;;5022030;28;20449;-93
2022/09/29 01:55:15;;;;;;;4.90;3.77;;;6.50;97.30;;;;;;5032881;28;20428;-94
2022/09/29 01:57:57;;;;;;;1.20;1.20;;;6.50;97.30;;;;;;5037433;28;20426;-94
2022/09/29 02:00:30;;;;;;;1.13;1.03;;;6.40;97.30;;;;;;5041609;28;20423;-94
2022/09/29 02:03:28;;;;;;;2.00;1.53;;;6.40;97.30;;;;;;5027893;28;20428;-93
2022/09/29 02:05:57;;;;;;;3.20;1.70;;;6.40;97.30;;;;;;5038477;28;20446;-95
2022/09/29 02:08:48;;;;;;;2.87;1.80;;;6.30;97.30;;;;;;5028114;28;20474;-92
2022/09/29 02:11:15;;;;;;;2.77;1.80;;;6.30;97.30;;;;;;5039035;28;20419;-94
2022/09/29 02:13:52;;;;;;;2.17;1.90;;;6.30;97.30;;;;;;5040857;28;20411;-94
2022/09/29 02:16:27;;;;;;;2.23;1.80;;;6.30;97.30;;;;;;5041417;28;20462;-94
2022/09/29 02:19:23;;;;;;;4.10;1.50;;;6.20;97.30;;;;;;5046112;28;20419;-93
2022/09/29 02:21:56;;;;;;;1.17;1.07;;;6.20;97.30;;;;;;5039498;28;20434;-93
2022/09/29 02:24:25;;;;;;;1.33;1.23;;;6.20;97.30;;;;;;5041340;28;20446;-93
2022/09/29 02:26:54;;;;;;;1.50;1.30;;;6.20;97.30;;;;;;5042801;28;20486;-95
2022/09/29 02:29:20;;;;;;;3.07;1.20;;;6.20;97.30;;;;;;5045507;28;20411;-96
2022/09/29 02:31:47;;;;;;;6.43;2.50;;;6.20;97.30;;;;;;5031696;28;20423;-94
2022/09/29 02:34:16;;;;;;;1.30;1.20;;;6.20;97.30;;;;;;5052288;28;20414;-94
2022/09/29 02:37:18;;;;;;;3.00;1.10;;;6.20;97.30;;;;;;5036726;28;20440;-94
2022/09/29 02:40:08;;;;;;;1.27;1.17;;;6.10;97.30;;;;;;5030657;28;20506;-94
2022/09/29 02:43:02;;;;;;;1.37;1.20;;;6.10;97.30;;;;;;5040381;28;20424;-92
2022/09/29 02:46:07;;;;;;;2.53;1.53;;;6.00;97.30;;;;;;5042859;28;20453;-95
2022/09/29 02:48:50;;;;;;;1.73;1.10;;;5.90;97.30;;;;;;5040791;28;20502;-95
2022/09/29 02:51:24;;;;;;;1.20;1.10;;;5.80;97.30;;;;;;5056040;28;20419;-94
2022/09/29 02:54:17;;;;;;;1.10;1.00;;;5.80;97.30;;;;;;5030566;28;20491;-95
2022/09/29 02:57:23;;;;;;;1.33;1.23;;;5.80;97.30;;;;;;5031534;28;20451;-95
2022/09/29 03:00:09;;;;;;;1.90;1.53;;;5.70;97.30;;;;;;5031704;28;20411;-95
2022/09/29 03:02:37;;;;;;;2.00;1.90;;;5.70;97.30;;;;;;5027523;28;20422;-93
2022/09/29 03:05:09;;;;;;;1.83;1.50;;;5.70;97.30;;;;;;5038980;28;20461;-95
2022/09/29 03:07:37;;;;;;;1.43;1.20;;;5.70;97.30;;;;;;5024886;28;20466;-92
2022/09/29 03:10:03;;;;;;;1.40;1.30;;;5.60;97.30;;;;;;5035836;28;20415;-93
2022/09/29 03:12:31;;;;;;;3.17;1.30;;;5.60;97.30;;;;;;5025294;28;20506;-93
2022/09/29 03:14:57;;;;;;;1.67;1.30;;;5.60;97.30;;;;;;5033877;28;20419;-92
2022/09/29 03:17:25;;;;;;;3.60;3.40;;;5.50;97.30;;;;;;5023682;28;20429;-95
2022/09/29 03:19:53;;;;;;;1.10;1.03;;;5.40;97.30;;;;;;5037637;28;20176;-93
2022/09/29 03:22:24;;;;;;;1.27;1.17;;;5.40;97.30;;;;;;5029330;28;20506;-93
2022/09/29 03:24:54;;;;;;;1.43;1.33;;;5.40;97.30;;;;;;5029781;28;20471;-94
2022/09/29 03:27:24;;;;;;;1.40;1.30;;;5.30;97.30;;;;;;5041285;28;20459;-96
2022/09/29 03:29:52;;;;;;;2.30;1.80;;;5.30;97.30;;;;;;5039987;28;20422;-95
2022/09/29 03:32:18;;;;;;;2.70;1.93;;;5.30;97.30;;;;;;5023865;28;20446;-95
2022/09/29 03:34:43;;;;;;;1.30;1.20;;;5.20;97.30;;;;;;5039445;28;20422;-92
2022/09/29 03:37:09;;;;;;;5.97;2.00;;;5.20;97.30;;;;;;5045146;28;20192;-95
2022/09/29 03:39:35;;;;;;;1.10;1.10;;;5.20;97.30;;;;;;5032635;28;20191;-96
2022/09/29 03:42:00;;;;;;;1.60;1.50;;;5.20;97.30;;;;;;5044760;28;20180;-95
2022/09/29 03:44:26;;;;;;;1.30;1.20;;;5.10;97.30;;;;;;5031263;28;20510;-95
2022/09/29 03:46:52;;;;;;;1.40;1.37;;;5.10;97.30;;;;;;5041181;28;20231;-94
2022/09/29 03:49:17;;;;;;;1.23;1.13;;;5.10;97.30;;;;;;5040746;28;20296;-95
2022/09/29 03:51:43;;;;;;;4.30;1.70;;;5.10;97.30;;;;;;5030729;28;20168;-94
2022/09/29 03:54:09;;;;;;;3.27;1.63;;;5.10;97.30;;;;;;5040836;28;20180;-95
2022/09/29 03:56:36;;;;;;;2.60;2.40;;;5.10;97.30;;;;;;5041043;28;20189;-93
2022/09/29 03:59:04;;;;;;;1.80;1.70;;;5.10;97.30;;;;;;5042138;28;20411;-94
2022/09/29 04:01:33;;;;;;;1.53;1.23;;;5.10;97.30;;;;;;5042511;28;20423;-95
2022/09/29 04:04:07;;;;;;;3.13;1.70;;;5.20;97.30;;;;;;5054995;28;20453;-95
2022/09/29 04:06:33;;;;;;;2.27;2.10;;;5.10;97.30;;;;;;5042056;28;20438;-96
2022/09/29 04:09:06;;;;;;;3.40;1.80;;;5.20;97.30;;;;;;5040134;28;20427;-92
2022/09/29 04:11:31;;;;;;;1.60;1.50;;;5.10;97.30;;;;;;5040332;28;20189;-94
2022/09/29 04:13:57;;;;;;;3.50;1.17;;;5.10;97.30;;;;;;5036907;28;20400;-94
2022/09/29 04:16:22;;;;;;;2.00;1.87;;;5.10;97.30;;;;;;5036369;28;20204;-92
2022/09/29 04:18:51;;;;;;;1.30;1.27;;;5.00;97.30;;;;;;5033645;28;20185;-94
2022/09/29 04:21:16;;;;;;;1.23;1.13;;;5.00;97.30;;;;;;5018943;28;20299;-93
2022/09/29 04:23:44;;;;;;;1.97;1.87;;;5.00;97.30;;;;;;5031958;28;20444;-92
2022/09/29 04:26:14;;;;;;;1.30;1.20;;;4.90;97.30;;;;;;5029938;28;20228;-92
2022/09/29 04:28:40;;;;;;;1.20;1.10;;;4.90;97.30;;;;;;5037570;28;20470;-94
2022/09/29 04:31:06;;;;;;;1.30;1.20;;;4.90;97.30;;;;;;5037613;28;20419;-93
2022/09/29 04:33:32;;;;;;;1.70;1.60;;;4.90;97.30;;;;;;5036855;28;20169;-94
2022/09/29 04:35:58;;;;;;;3.00;1.67;;;4.90;97.30;;;;;;5049319;28;20445;-94
2022/09/29 04:38:24;;;;;;;1.77;1.67;;;4.90;97.30;;;;;;5039988;28;20270;-94
2022/09/29 04:40:50;;;;;;;1.40;1.30;;;4.90;97.30;;;;;;5024946;28;20420;-94
2022/09/29 04:43:16;;;;;;;1.43;1.33;;;4.90;97.30;;;;;;5022687;28;20176;-94
2022/09/29 04:45:41;;;;;;;1.40;1.30;;;4.90;97.30;;;;;;5024248;28;20201;-93
2022/09/29 04:48:07;;;;;;;1.43;1.33;;;4.90;97.30;;;;;;5035245;28;20224;-94
2022/09/29 04:50:33;;;;;;;1.20;1.10;;;4.90;97.30;;;;;;5026402;28;20192;-92
2022/09/29 04:52:59;;;;;;;1.20;1.10;;;4.90;97.30;;;;;;5035705;28;20169;-93
2022/09/29 04:55:25;;;;;;;1.57;1.47;;;4.80;97.30;;;;;;5036877;28;20445;-94
2022/09/29 04:57:50;;;;;;;1.60;1.57;;;4.80;97.30;;;;;;5031487;28;20432;-92
2022/09/29 05:00:16;;;;;;;1.77;1.67;;;4.80;97.30;;;;;;5029692;28;20434;-92
2022/09/29 05:02:43;;;;;;;1.57;1.47;;;4.80;97.30;;;;;;5035990;28;20182;-94
2022/09/29 05:05:11;;;;;;;2.07;1.93;;;4.80;97.30;;;;;;5023801;28;20181;-93
2022/09/29 05:07:40;;;;;;;2.80;1.50;;;4.70;97.30;;;;;;5036537;28;20474;-91
2022/09/29 05:10:07;;;;;;;1.53;1.43;;;4.70;97.30;;;;;;5036336;28;20426;-94
2022/09/29 05:12:33;;;;;;;1.20;1.10;;;4.70;97.30;;;;;;5036929;28;20419;-93
2022/09/29 05:15:05;;;;;;;1.70;1.60;;;4.70;97.30;;;;;;5022611;28;20416;-92
2022/09/29 05:17:30;;;;;;;1.83;1.73;;;4.70;97.30;;;;;;5017257;28;20173;-93
2022/09/29 05:19:56;;;;;;;1.63;1.60;;;4.70;97.30;;;;;;5031675;28;20411;-94
2022/09/29 05:22:24;;;;;;;2.23;2.03;;;4.70;97.30;;;;;;5029914;28;20177;-93
2022/09/29 05:24:52;;;;;;;4.33;2.43;;;4.70;97.30;;;;;;5031585;28;20180;-94
2022/09/29 05:27:20;;;;;;;2.67;1.40;;;4.60;97.30;;;;;;5037140;28;20478;-94
2022/09/29 05:29:46;;;;;;;4.73;1.50;;;4.60;97.30;;;;;;5035343;28;20430;-93
2022/09/29 05:32:12;;;;;;;2.00;1.90;;;4.60;97.30;;;;;;5050171;23;20510;-88
2022/09/29 05:34:37;;;;;;;2.50;1.30;;;4.60;97.30;;;;;;5013463;28;20239;-88
2022/09/29 05:37:03;;;;;;;2.07;1.93;;;4.60;97.30;;;;;;5030913;28;20411;-85
2022/09/29 05:39:33;;;;;;;1.80;1.70;;;4.60;97.30;;;;;;5041506;28;20660;-87
2022/09/29 05:41:58;;;;;;;3.03;1.23;;;4.60;97.30;;;;;;5023949;28;20515;-88
2022/09/29 05:44:24;;;;;;;1.87;1.77;;;4.70;97.30;;;;;;5000200;28;20511;-88
2022/09/29 05:46:49;;;;;;;4.50;1.60;;;4.70;97.30;;;;;;5007458;28;20219;-88
2022/09/29 05:49:17;;;;;;;4.70;2.40;;;4.70;97.30;;;;;;5013644;28;20180;-88
2022/09/29 05:51:42;;;;;;;2.30;1.70;;;4.70;97.30;;;;;;5017869;28;20201;-88
2022/09/29 05:54:08;;;;;;;1.63;1.53;;;4.70;97.30;;;;;;5010467;28;20427;-88
2022/09/29 05:56:33;;;;;;;4.23;1.60;;;4.70;97.30;;;;;;5011256;28;20185;-89
2022/09/29 05:59:00;;;;;;;3.13;1.60;;;4.70;97.30;;;;;;5011101;28;20181;-88
2022/09/29 06:01:26;;;;;;;1.40;1.30;;;4.70;97.30;;;;;;5011158;28;20177;-88
2022/09/29 06:03:55;;;;;;;2.27;1.63;;;4.70;97.30;;;;;;5009844;28;20803;-88
2022/09/29 06:06:24;;;;;;;5.03;1.60;;;4.80;97.30;;;;;;5005672;28;20804;-88
2022/09/29 06:08:50;;;;;;;1.40;1.30;;;4.80;97.30;;;;;;5004336;28;21113;-89
2022/09/29 06:11:28;;;;;;;1.20;1.10;;;4.90;97.30;;;;;;5004132;28;20503;-89
2022/09/29 06:13:54;;;;;;;1.10;1.00;;;4.90;97.30;;;;;;5017006;28;20423;-90
2022/09/29 06:16:23;;;;;;;4.53;2.43;;;5.00;97.30;;;;;;5010233;28;20518;-89
2022/09/29 06:18:49;;;;;;;5.10;2.90;;;5.00;97.30;;;;;;5012936;28;20428;-89
2022/09/29 06:21:17;;;;;;;3.20;2.80;;;5.10;97.30;;;;;;5020313;28;20415;-89
2022/09/29 06:23:43;;;;;;;2.93;2.27;;;5.10;97.30;;;;;;5025786;28;20760;-90
2022/09/29 06:26:11;;;;;;;4.43;3.10;;;5.20;97.30;;;;;;5010388;28;20845;-89
2022/09/29 06:28:37;;;;;;;3.40;3.20;;;5.30;97.30;;;;;;5025124;28;20467;-89
2022/09/29 06:31:06;;;;;;;3.33;1.70;;;5.40;97.30;;;;;;5029583;28;20430;-89
2022/09/29 06:33:33;;;;;;;2.17;1.80;;;5.40;97.30;;;;;;5026656;28;20228;-89
2022/09/29 06:38:51;;;;;;;7.23;3.23;;;5.60;97.30;;;;;;5006309;28;20442;-90
2022/09/29 06:41:18;;;;;;;4.13;2.63;;;5.70;97.30;;;;;;5028894;28;20469;-89
2022/09/29 06:43:43;;;;;;;4.20;1.70;;;5.80;97.30;;;;;;5003251;28;20432;-90
2022/09/29 06:46:09;;;;;;;3.00;1.80;;;5.90;97.30;;;;;;5003608;28;20416;-90
2022/09/29 06:48:35;;;;;;;1.40;1.33;;;6.00;97.30;;;;;;5023131;28;20212;-89
2022/09/29 06:51:00;;;;;;;2.77;2.07;;;6.10;97.30;;;;;;5010093;28;20185;-89
2022/09/29 06:53:26;;;;;;;2.20;1.60;;;6.30;97.30;;;;;;5015687;28;20442;-89
2022/09/29 06:55:55;;;;;;;3.10;2.90;;;6.40;97.30;;;;;;5016313;28;20181;-89
2022/09/29 06:58:22;;;;;;;7.80;1.83;;;6.50;97.30;;;;;;4990664;28;20185;-89
2022/09/29 07:00:48;;;;;;;2.80;2.27;;;6.60;97.30;;;;;;5016518;28;20411;-89
2022/09/29 07:03:13;;;;;;;2.03;1.70;;;6.80;97.30;;;;;;5018198;28;20431;-89
2022/09/29 07:05:39;;;;;;;5.73;3.83;;;6.90;97.30;;;;;;5016660;28;20412;-89
2022/09/29 07:08:04;;;;;;;1.53;1.43;;;7.00;97.30;;;;;;5010043;28;20197;-88
2022/09/29 07:10:30;;;;;;;3.17;2.90;;;7.10;97.30;;;;;;5022222;28;20201;-90
2022/09/29 07:12:56;;;;;;;1.60;1.50;;;7.20;97.30;;;;;;5028956;28;20224;-90
2022/09/29 07:15:21;;;;;;;5.80;2.30;;;7.30;97.30;;;;;;5026758;28;20205;-91
2022/09/29 07:17:50;;;;;;;2.63;1.70;;;7.50;97.30;;;;;;5012433;28;20722;-89
2022/09/29 07:20:16;;;;;;;2.33;1.93;;;7.60;97.30;;;;;;5008978;28;20177;-89
2022/09/29 07:22:45;;;;;;;2.43;2.23;;;7.70;97.30;;;;;;5009248;28;20445;-89
2022/09/29 07:25:11;;;;;;;5.93;3.03;;;7.80;97.30;;;;;;5008631;28;20608;-89
2022/09/29 07:27:37;;;;;;;3.57;2.70;;;7.80;97.30;;;;;;5009340;28;20513;-90
2022/09/29 07:30:03;;;;;;;4.83;2.40;;;7.90;97.30;;;;;;5010240;28;20181;-89
2022/09/29 07:32:31;;;;;;;3.93;3.13;;;8.00;97.30;;;;;;5010028;28;20518;-89
2022/09/29 07:34:57;;;;;;;3.17;2.97;;;8.10;97.30;;;;;;5008862;28;20480;-89
2022/09/29 07:37:24;;;;;;;3.57;3.37;;;8.30;97.30;;;;;;5009166;28;20424;-89
2022/09/29 07:39:50;;;;;;;7.03;2.63;;;8.30;97.30;;;;;;5011020;28;20223;-90
2022/09/29 07:42:17;;;;;;;3.37;2.83;;;8.40;97.30;;;;;;5028708;28;20446;-89
2022/09/29 07:44:42;;;;;;;10.17;4.80;;;8.50;97.30;;;;;;5001728;28;20744;-89
2022/09/29 07:47:08;;;;;;;4.10;3.87;;;8.60;97.30;;;;;;5009387;28;20488;-89
2022/09/29 07:49:34;;;;;;;2.07;1.93;;;8.60;97.30;;;;;;5011265;28;20184;-89
2022/09/29 07:51:59;;;;;;;5.37;3.10;;;8.70;97.30;;;;;;5021402;28;20373;-89
2022/09/29 07:54:25;;;;;;;3.37;1.90;;;8.80;97.30;;;;;;5021833;28;20635;-89
2022/09/29 07:56:50;;;;;;;7.40;3.90;;;8.90;97.30;;;;;;4992832;28;20640;-89
2022/09/29 07:59:16;;;;;;;3.43;1.93;;;9.00;97.30;;;;;;4996841;28;20178;-89
2022/09/29 08:01:41;;;;;;;5.90;3.37;;;9.10;97.30;;;;;;5013150;28;20570;-89
2022/09/29 08:04:07;;;;;;;13.57;3.63;;;9.10;97.30;;;;;;5016357;28;20181;-89
2022/09/29 08:06:33;;;;;;;3.80;2.97;;;9.20;97.30;;;;;;5010739;28;20656;-89
2022/09/29 08:09:01;;;;;;;3.60;2.73;;;9.30;97.30;;;;;;5013244;28;20527;-89
2022/09/29 08:11:27;;;;;;;5.30;3.60;;;9.30;97.30;;;;;;5011649;28;20244;-89
2022/09/29 08:13:53;;;;;;;4.10;2.20;;;9.40;97.30;;;;;;5011575;28;20412;-89
2022/09/29 08:16:19;;;;;;;7.03;3.17;;;9.50;97.30;;;;;;5001679;28;20419;-89
2022/09/29 08:18:44;;;;;;;3.90;3.57;;;9.60;97.30;;;;;;5012783;28;20416;-89
2022/09/29 08:21:13;;;;;;;6.80;2.90;;;9.60;97.30;;;;;;5012835;28;20436;-90
2022/09/29 08:23:40;;;;;;;15.67;5.83;;;9.70;97.30;;;;;;5009509;28;20177;-90
2022/09/29 08:26:12;;;;;;;2.90;2.50;;;9.80;97.30;;;;;;5001288;28;20416;-89
2022/09/29 08:28:38;;;;;;;3.90;3.27;;;9.80;97.30;;;;;;5010827;28;20994;-89
2022/09/29 08:31:06;;;;;;;4.13;2.60;;;9.90;97.30;;;;;;5011950;28;20451;-89
2022/09/29 08:33:33;;;;;;;8.00;2.03;;;10.00;97.30;;;;;;5012831;28;20618;-89
2022/09/29 08:35:59;;;;;;;5.03;2.77;;;10.10;97.30;;;;;;5011965;28;20429;-89
2022/09/29 08:38:25;;;;;;;11.23;4.80;;;10.10;97.30;;;;;;4996809;28;20475;-89
2022/09/29 08:40:53;;;;;;;6.73;2.00;;;10.20;97.30;;;;;;5019732;28;20611;-90
2022/09/29 08:43:37;;;;;;;5.50;2.80;;;10.30;97.30;;;;;;4998537;28;20470;-89
2022/09/29 08:46:27;;;;;;;5.00;3.73;;;10.30;97.30;;;;;;5011693;28;20424;-88
2022/09/29 08:48:55;;;;;;;2.50;1.60;;;10.50;97.30;;;;;;5000605;28;20474;-89
2022/09/29 08:51:37;;;;;;;2.53;2.10;;;10.60;97.30;;;;;;5009126;28;20425;-89
2022/09/29 08:54:14;;;;;;;5.23;2.90;;;10.70;97.30;;;;;;5003260;28;20420;-89
2022/09/29 08:56:40;;;;;;;2.80;2.43;;;10.70;97.30;;;;;;5024261;28;20849;-89
2022/09/29 08:59:09;;;;;;;4.33;2.43;;;10.80;97.30;;;;;;4999180;28;20548;-89
2022/09/29 09:02:02;;;;;;;4.10;1.73;;;10.90;97.30;;;;;;5024525;28;20696;-89
2022/09/29 09:04:39;;;;;;;6.07;2.77;;;11.00;97.30;;;;;;5014700;28;20455;-89
2022/09/29 09:07:20;;;;;;;3.33;2.80;;;11.00;97.30;;;;;;5009335;28;20731;-89
2022/09/29 09:09:59;;;;;;;4.90;2.40;;;11.10;97.30;;;;;;5005992;28;20430;-90
2022/09/29 09:13:00;;;;;;;1.93;1.80;;;11.20;97.30;;;;;;5031159;28;20989;-88
2022/09/29 09:15:35;;;;;;;10.30;3.73;;;11.20;97.30;;;;;;5007208;28;20426;-88
2022/09/29 09:18:21;;;;;;;1.50;1.40;;;11.40;97.30;;;;;;5027462;28;20522;-89
2022/09/29 09:21:07;;;;;;;16.60;1.67;;;11.40;97.30;;;;;;5012020;28;20454;-89
2022/09/29 09:23:52;;;;;;;4.83;2.33;;;11.50;97.30;;;;;;5025015;28;20441;-89
2022/09/29 09:26:20;;;;;;;4.27;3.23;;;11.60;97.30;;;;;;5002440;28;20431;-89
2022/09/29 09:28:56;;;;;;;2.37;1.87;;;11.70;97.30;;;;;;5014097;28;20462;-90
2022/09/29 09:31:34;;;;;;;1.30;1.20;;;11.80;97.30;;;;;;5010391;28;20498;-90
2022/09/29 09:34:25;;;;;;;3.10;2.90;;;11.90;97.30;;;;;;4996041;28;20428;-89
2022/09/29 09:36:56;;;;;;;1.77;1.70;;;12.10;97.30;;;;;;4999309;28;20420;-90
2022/09/29 09:39:44;;;;;;;1.60;1.50;;;12.20;97.30;;;;;;5011030;28;20416;-89
2022/09/29 09:42:22;;;;;;;1.73;1.67;;;12.30;97.30;;;;;;5011261;28;20519;-90
2022/09/29 09:45:08;;;;;;;1.73;1.63;;;12.20;97.30;;;;;;5010670;28;20416;-89
2022/09/29 09:47:37;;;;;;;4.30;1.83;;;12.20;97.30;;;;;;5010951;28;20459;-90
2022/09/29 09:50:15;;;;;;;3.57;3.07;;;12.10;97.30;;;;;;5013053;28;20634;-89
2022/09/29 09:52:53;;;;;;;2.00;1.90;;;12.10;97.30;;;;;;5029924;28;20450;-90
2022/09/29 09:55:26;;;;;;;1.00;1.00;;;12.00;97.30;;;;;;5012086;28;20408;-89
2022/09/29 09:58:17;;;;;;;2.13;1.67;;;12.00;97.30;;;;;;5010760;28;20871;-89
2022/09/29 10:00:51;;;;;;;3.20;1.93;;;11.90;97.30;;;;;;5009859;28;20516;-90
2022/09/29 10:03:16;;;;;;;2.80;1.60;;;11.90;97.30;;;;;;5031119;28;20432;-89
2022/09/29 10:05:44;;;;;;;3.60;3.10;;;11.90;97.30;;;;;;5017134;28;20415;-89
2022/09/29 10:08:38;;;;;;;3.00;2.47;;;11.90;97.30;;;;;;5030151;28;20204;-89
2022/09/29 10:11:29;;;;;;;1.90;1.80;;;12.00;97.30;;;;;;5022364;28;20511;-89
2022/09/29 10:14:03;;;;;;;3.13;1.87;;;12.10;97.30;;;;;;4997203;28;20776;-89
2022/09/29 10:16:45;;;;;;;5.80;2.17;;;12.20;97.30;;;;;;4998391;28;20409;-89
2022/09/29 10:19:11;;;;;;;4.10;2.80;;;12.20;97.30;;;;;;4998995;28;20427;-88
2022/09/29 10:21:44;;;;;;;4.03;2.73;;;12.20;97.30;;;;;;5010028;28;20823;-89
2022/09/29 10:24:32;;;;;;;2.13;1.70;;;12.20;97.30;;;;;;5010400;28;20456;-89
2022/09/29 10:27:03;;;;;;;2.43;2.23;;;12.30;97.30;;;;;;5004131;28;20468;-89
2022/09/29 10:29:40;;;;;;;1.40;1.30;;;12.30;97.30;;;;;;4990275;28;20483;-89
2022/09/29 10:32:14;;;;;;;3.00;1.70;;;12.40;97.30;;;;;;4997931;28;20526;-89
2022/09/29 10:34:41;;;;;;;1.60;1.20;;;12.50;97.30;;;;;;5009379;28;20431;-89
2022/09/29 10:37:26;;;;;;;2.60;2.13;;;12.60;97.30;;;;;;5010039;28;20444;-89
2022/09/29 10:40:09;;;;;;;1.63;1.53;;;12.70;97.30;;;;;;4996752;28;20459;-89
2022/09/29 10:42:36;;;;;;;1.53;1.43;;;12.90;97.30;;;;;;4997289;28;20479;-90
2022/09/29 10:45:21;;;;;;;6.33;2.40;;;12.90;97.30;;;;;;5009290;28;20423;-89
2022/09/29 10:48:11;;;;;;;3.30;1.60;;;13.10;97.30;;;;;;5009904;28;20880;-89
2022/09/29 10:50:48;;;;;;;1.30;1.20;;;13.20;97.30;;;;;;5009629;28;20799;-89
2022/09/29 10:53:37;;;;;;;1.23;1.20;;;13.30;97.30;;;;;;4998459;28;20554;-90
2022/09/29 10:56:21;;;;;;;1.50;1.40;;;13.30;97.30;;;;;;5010211;28;20586;-88
2022/09/29 10:59:00;;;;;;;2.27;2.07;;;13.30;97.30;;;;;;5010067;28;20506;-89
2022/09/29 11:01:28;;;;;;;1.83;1.50;;;13.40;97.30;;;;;;4991635;28;20471;-89
2022/09/29 11:04:02;;;;;;;1.30;1.00;;;13.60;97.30;;;;;;5005922;28;20478;-90
2022/09/29 11:06:33;;;;;;;2.37;2.17;;;13.80;97.10;;;;;;5010947;28;20424;-89
2022/09/29 11:09:25;;;;;;;2.30;1.87;;;14.00;97.30;;;;;;5010031;28;20488;-89
2022/09/29 11:11:56;;;;;;;1.73;1.63;;;14.10;97.30;;;;;;5000204;28;20576;-89
2022/09/29 11:14:37;;;;;;;2.37;1.63;;;14.20;96.10;;;;;;5009525;28;20460;-89
2022/09/29 11:17:27;;;;;;;2.70;2.33;;;14.30;96.00;;;;;;5009598;28;20416;-86
2022/09/29 11:20:17;;;;;;;4.20;2.60;;;14.40;95.40;;;;;;5009307;28;20435;-89
2022/09/29 11:23:08;;;;;;;4.97;3.60;;;14.50;96.00;;;;;;5004680;28;20471;-89
2022/09/29 11:26:09;;;;;;;3.50;1.40;;;14.70;96.40;;;;;;5009660;28;20416;-89
2022/09/29 11:29:18;;;;;;;3.43;2.33;;;14.80;96.00;;;;;;5014109;28;20461;-89
2022/09/29 11:37:17;;;;;;;4.23;3.80;;;15.10;92.50;;;;;;5029252;28;20476;-90
2022/09/29 11:43:06;;;;;;;3.70;1.77;;;15.30;93.50;;;;;;5017264;28;20431;-90
2022/09/29 11:46:26;;;;;;;1.70;1.60;;;15.50;93.00;;;;;;5033162;28;20453;-90
2022/09/29 11:49:37;;;;;;;1.20;1.10;;;15.70;94.00;;;;;;5040526;28;20505;-90
2022/09/29 11:52:46;;;;;;;1.60;1.60;;;15.90;94.70;;;;;;5033391;28;20419;-89
2022/09/29 11:55:57;;;;;;;2.10;1.60;;;16.20;94.90;;;;;;5031776;28;20411;-91
2022/09/29 11:59:14;;;;;;;2.23;1.60;;;16.40;93.60;;;;;;5013566;28;20419;-90
2022/09/29 12:02:07;;;;;;;2.50;2.07;;;16.60;94.00;;;;;;5029312;28;20557;-90
2022/09/29 12:04:56;;;;;;;2.10;1.57;;;16.80;91.60;;;;;;5027456;28;20419;-90
2022/09/29 12:07:56;;;;;;;2.77;2.57;;;17.00;91.70;;;;;;5027978;28;20479;-91
2022/09/29 12:10:56;;;;;;;2.60;1.97;;;16.80;89.00;;;;;;5028897;28;20423;-90
2022/09/29 12:13:55;;;;;;;3.20;1.80;;;16.50;89.20;;;;;;5032233;28;20506;-90
2022/09/29 12:16:47;;;;;;;2.60;2.00;;;16.30;88.90;;;;;;5032679;28;20582;-90
2022/09/29 12:19:38;;;;;;;1.57;1.50;;;16.00;89.70;;;;;;5023369;28;20416;-90
2022/09/29 12:22:29;;;;;;;;;;;;;;;;;;;;;
2022/09/29 12:24:57;;;;;;;1.87;1.77;;;15.60;90.80;;;;;;5020358;28;20412;-91
2022/09/29 12:27:44;;;;;;;3.03;1.77;;;15.40;91.50;;;;;;5032999;28;20984;-89
2022/09/29 12:30:21;;;;;;;1.10;1.00;;;15.20;91.20;;;;;;5032314;28;20446;-90
2022/09/29 12:33:21;;;;;;;1.77;1.30;;;15.00;90.80;;;;;;5031754;28;20443;-91
2022/09/29 12:39:18;;;;;;;3.30;1.63;;;14.80;91.90;;;;;;5008794;28;20462;-90
2022/09/29 12:41:51;;;;;;;1.70;1.60;;;14.80;92.30;;;;;;5019923;28;20922;-90
2022/09/29 12:44:33;;;;;;;1.37;1.30;;;14.80;92.60;;;;;;5033204;28;20438;-90
2022/09/29 12:47:11;;;;;;;1.87;1.67;;;14.90;94.00;;;;;;5032062;28;20469;-91
2022/09/29 12:49:56;;;;;;;1.67;1.67;;;15.30;95.00;;;;;;5031623;28;20814;-90
2022/09/29 12:52:28;;;;;;;1.90;1.67;;;15.50;93.80;;;;;;5031213;28;21029;-90
2022/09/29 12:55:00;;;;;;;1.73;1.67;;;15.50;93.10;;;;;;5031885;28;20419;-91
2022/09/29 12:57:32;;;;;;;2.23;1.77;;;15.50;92.60;;;;;;5031769;28;20451;-90
2022/09/29 13:00:03;;;;;;;2.80;2.50;;;15.60;93.80;;;;;;5031949;28;20423;-90
2022/09/29 13:03:11;;;;;;;2.70;2.50;;;15.70;92.30;;;;;;5031573;28;20533;-89
2022/09/29 13:05:44;;;;;;;1.77;1.40;;;15.70;92.00;;;;;;5031310;28;20434;-90
2022/09/29 13:08:47;;;;;;;1.63;1.53;;;15.80;93.10;;;;;;5031471;28;20489;-90
2022/09/29 13:11:40;;;;;;;1.60;1.50;;;15.80;93.00;;;;;;5048330;28;20526;-89
2022/09/29 13:14:20;;;;;;;1.37;1.27;;;15.70;92.60;;;;;;5019406;28;20972;-90
2022/09/29 13:17:03;;;;;;;2.50;2.00;;;15.70;93.60;;;;;;5031775;28;20697;-90
2022/09/29 13:19:59;;;;;;;1.97;1.83;;;15.80;93.50;;;;;;5048040;28;20423;-90
2022/09/29 13:22:43;;;;;;;2.30;1.90;;;15.90;93.10;;;;;;5033316;28;20438;-91
2022/09/29 13:25:12;;;;;;;2.80;2.70;;;16.00;92.10;;;;;;5047794;28;20419;-91
2022/09/29 13:27:45;;;;;;;2.67;2.20;;;16.10;92.20;;;;;;5044902;28;20892;-90
2022/09/29 13:30:11;;;;;;;2.10;1.97;;;16.20;91.30;;;;;;5016991;28;20465;-90
2022/09/29 13:32:48;;;;;;;1.73;1.67;;;16.30;91.00;;;;;;5044650;28;20502;-90
2022/09/29 13:35:20;;;;;;;2.23;1.77;;;16.40;91.00;;;;;;5017999;28;20454;-90
2022/09/29 13:37:55;;;;;;;2.23;1.83;;;16.60;90.70;;;;;;5029922;28;20431;-90
2022/09/29 13:40:24;;;;;;;3.30;2.00;;;16.90;90.70;;;;;;5020421;28;20415;-90
2022/09/29 13:42:54;;;;;;;2.27;1.90;;;17.10;89.00;;;;;;5031809;28;20492;-90
2022/09/29 13:45:20;;;;;;;1.77;1.40;;;17.30;89.00;;;;;;5030830;28;20823;-90
2022/09/29 13:47:45;;;;;;;1.60;1.50;;;17.50;89.00;;;;;;5033830;28;20947;-89
2022/09/29 13:50:39;;;;;;;2.47;2.27;;;17.70;89.90;;;;;;5047534;28;20180;-90